Time;durP1;ratioP1;P1;durP2;ratioP2;P2;SDS_P1;SDS_P2;PMS_P1;PMS_P2;Temp;Humidity;BMP_temperature;BMP_pressure;BME280_temperature;BME280_humidity;BME280_pressure;Samples;Min_cycle;Max_cycle;Signal;HPM_P1;HPM_P2
2022/05/28 00:01:46;;;;;;;18.67;13.55;;;;;;;20.65;94.83;100128.47;5044058;28;20025;-73
2022/05/28 00:04:13;;;;;;;21.17;15.90;;;;;;;20.77;95.31;100159.84;5046008;28;20021;-73
2022/05/28 00:06:38;;;;;;;19.70;15.18;;;;;;;20.81;94.91;100156.31;5051249;28;20055;-76
2022/05/28 00:09:04;;;;;;;17.25;15.45;;;;;;;20.96;94.27;100150.03;5051146;28;20033;-76
2022/05/28 00:11:41;;;;;;;19.95;15.25;;;;;;;20.91;94.25;100145.69;5032122;28;20044;-76
2022/05/28 00:14:08;;;;;;;16.80;14.90;;;;;;;20.81;94.88;100145.81;5051085;28;20025;-76
2022/05/28 00:16:35;;;;;;;23.70;16.27;;;;;;;20.76;94.80;100126.63;5050989;28;20535;-74
2022/05/28 00:19:00;;;;;;;18.50;16.17;;;;;;;20.86;94.34;100140.53;5051225;28;20041;-76
2022/05/28 00:21:27;;;;;;;20.75;16.92;;;;;;;20.73;94.43;100124.03;5052131;28;20086;-76
2022/05/28 00:23:53;;;;;;;20.60;16.95;;;;;;;20.68;95.07;100136.28;5024275;28;20092;-76
2022/05/28 00:26:19;;;;;;;23.02;18.60;;;;;;;20.62;95.57;100128.47;5011409;28;20030;-77
2022/05/28 00:28:44;;;;;;;22.52;18.95;;;;;;;20.40;97.19;100130.44;5011160;28;20030;-76
2022/05/28 00:31:10;;;;;;;21.30;18.73;;;;;;;20.35;97.37;100127.88;5010567;28;20467;-76
2022/05/28 00:33:36;;;;;;;22.48;18.20;;;;;;;20.28;97.49;100126.19;5010944;28;20536;-78
2022/05/28 00:36:04;;;;;;;21.77;18.98;;;;;;;20.29;97.47;100122.69;5010178;28;20029;-77
2022/05/28 00:38:29;;;;;;;22.30;18.73;;;;;;;20.38;96.87;100119.13;5010547;28;20506;-75
2022/05/28 00:40:57;;;;;;;21.58;19.20;;;;;;;20.36;97.02;100132.22;5011059;28;20109;-74
2022/05/28 00:43:24;;;;;;;22.42;19.48;;;;;;;20.29;96.83;100120.06;5008334;28;20048;-75
2022/05/28 00:45:57;;;;;;;20.88;18.60;;;;;;;20.45;96.73;100129.53;5011222;28;20029;-76
2022/05/28 00:48:29;;;;;;;24.02;20.15;;;;;;;20.31;96.90;100126.16;5010205;28;20026;-76
2022/05/28 00:50:57;;;;;;;24.83;19.52;;;;;;;20.35;96.55;100126.09;5010703;28;20033;-74
2022/05/28 00:53:23;;;;;;;21.67;19.48;;;;;;;20.28;96.45;100113.94;5010554;28;20042;-77
2022/05/28 00:55:48;;;;;;;23.90;20.48;;;;;;;20.29;96.56;100122.69;5010509;28;20034;-77
2022/05/28 00:58:14;;;;;;;23.08;20.88;;;;;;;20.03;96.77;100087.94;5017258;28;20021;-76
2022/05/28 01:00:41;;;;;;;23.08;20.45;;;;;;;19.86;98.26;100090.69;5031129;28;20105;-74
2022/05/28 01:03:33;;;;;;;22.95;20.75;;;;;;;20.05;98.08;100106.28;5031086;28;20034;-73
2022/05/28 01:06:04;;;;;;;25.02;20.73;;;;;;;20.15;98.00;100128.00;5030852;28;20033;-78
2022/05/28 01:09:09;;;;;;;22.73;20.35;;;;;;;20.04;98.71;100120.25;5030336;28;20030;-74
2022/05/28 01:11:41;;;;;;;24.90;22.02;;;;;;;20.01;98.43;100099.31;5048038;28;20040;-75
2022/05/28 01:14:15;;;;;;;23.95;21.55;;;;;;;19.94;98.63;100108.09;5048170;28;20041;-73
2022/05/28 01:16:46;;;;;;;24.90;21.70;;;;;;;20.06;98.98;100125.47;5047955;28;20029;-76
2022/05/28 01:19:17;;;;;;;22.25;19.98;;;;;;;20.09;98.40;100114.97;5047914;28;20552;-75
2022/05/28 01:21:48;;;;;;;23.25;20.75;;;;;;;19.92;99.32;100108.09;5048096;28;20045;-75
2022/05/28 01:24:29;;;;;;;24.10;21.60;;;;;;;19.97;99.23;100121.19;5048344;28;20130;-78
2022/05/28 01:26:59;;;;;;;23.35;20.27;;;;;;;20.03;98.29;100124.63;5047840;28;20170;-75
2022/05/28 01:29:31;;;;;;;23.13;20.73;;;;;;;19.90;99.07;100109.00;5047953;28;20455;-74
2022/05/28 01:32:00;;;;;;;22.52;19.67;;;;;;;19.82;98.90;100088.94;5047805;28;20041;-78
2022/05/28 01:34:26;;;;;;;22.33;20.02;;;;;;;19.79;99.06;100088.06;5047663;28;20625;-78
2022/05/28 01:36:55;;;;;;;22.88;19.40;;;;;;;19.92;98.71;100110.72;5047884;28;20031;-76
2022/05/28 01:39:22;;;;;;;22.20;18.40;;;;;;;19.92;98.84;100100.25;5047495;28;20116;-78
2022/05/28 01:41:48;;;;;;;21.58;19.38;;;;;;;19.97;97.91;100093.22;5047466;28;20112;-77
2022/05/28 01:44:15;;;;;;;23.83;19.27;;;;;;;19.95;97.90;100102.84;5047732;28;20041;-78
2022/05/28 01:46:44;;;;;;;22.58;20.20;;;;;;;19.80;98.13;100087.19;5028050;28;20042;-77
2022/05/28 01:49:13;;;;;;;22.45;18.70;;;;;;;19.90;97.93;100096.78;5030488;28;20030;-79
2022/05/28 01:51:57;;;;;;;20.92;18.92;;;;;;;19.72;97.68;100061.94;5028803;28;20077;-77
2022/05/28 01:54:28;;;;;;;21.52;19.38;;;;;;;19.94;97.68;100089.75;5016382;28;20468;-77
2022/05/28 01:56:55;;;;;;;22.13;19.85;;;;;;;19.64;97.84;100062.88;5025795;28;20065;-77
2022/05/28 01:59:27;;;;;;;22.50;20.13;;;;;;;19.67;98.61;100089.91;5009665;28;20030;-75
2022/05/28 02:01:55;;;;;;;21.30;19.02;;;;;;;19.70;98.90;100095.13;5025924;28;20057;-75
2022/05/28 02:04:21;;;;;;;22.85;20.02;;;;;;;19.59;99.28;100096.06;5010544;28;20037;-78
2022/05/28 02:06:47;;;;;;;22.70;20.30;;;;;;;19.62;99.67;100090.84;5010603;28;20026;-74
2022/05/28 02:09:16;;;;;;;23.92;21.35;;;;;;;19.33;100.00;100063.94;5010814;28;20036;-76
2022/05/28 02:12:04;;;;;;;23.13;20.63;;;;;;;19.50;100.00;100108.34;5010503;28;20030;-75
2022/05/28 02:14:44;;;;;;;21.83;19.50;;;;;;;19.55;100.00;100117.06;5010382;28;20164;-73
2022/05/28 02:17:22;;;;;;;24.23;21.55;;;;;;;19.50;100.00;100113.59;5010349;28;20436;-75
2022/05/28 02:19:57;;;;;;;24.05;21.63;;;;;;;19.38;100.00;100124.97;5010459;28;20037;-75
2022/05/28 02:22:34;;;;;;;22.50;19.73;;;;;;;19.34;100.00;100127.63;5010332;28;20032;-75
2022/05/28 02:25:09;;;;;;;22.17;19.83;;;;;;;19.21;100.00;100106.72;5010463;28;20117;-75
2022/05/28 02:27:37;;;;;;;22.40;19.95;;;;;;;19.20;100.00;100131.19;5010404;28;20022;-74
2022/05/28 02:30:03;;;;;;;23.20;20.35;;;;;;;19.05;100.00;100123.38;5009840;28;20411;-77
2022/05/28 02:32:29;;;;;;;23.45;21.00;;;;;;;19.03;100.00;100127.75;5008839;28;20026;-76
2022/05/28 02:34:54;;;;;;;23.52;20.98;;;;;;;19.13;100.00;100133.81;5010812;28;20038;-75
2022/05/28 02:37:23;;;;;;;23.70;21.13;;;;;;;19.15;100.00;100134.69;5010235;28;20022;-75
2022/05/28 02:39:49;;;;;;;26.30;20.98;;;;;;;19.18;100.00;100122.47;5009297;28;20033;-70
2022/05/28 02:42:15;;;;;;;23.52;20.98;;;;;;;19.15;100.00;100112.03;5010051;28;20101;-75
2022/05/28 02:44:41;;;;;;;24.77;22.17;;;;;;;19.16;100.00;100103.28;5010460;28;20155;-75
2022/05/28 02:47:07;;;;;;;25.92;22.45;;;;;;;19.17;100.00;100115.47;5010064;28;20029;-74
2022/05/28 02:49:32;;;;;;;24.67;22.15;;;;;;;18.98;100.00;100078.06;5009619;28;20125;-72
2022/05/28 02:52:03;;;;;;;24.75;22.15;;;;;;;19.19;100.00;100111.13;5009989;28;20061;-73
2022/05/28 02:54:29;;;;;;;24.77;22.27;;;;;;;19.10;100.00;100115.53;5010080;28;20028;-74
2022/05/28 02:56:54;;;;;;;28.23;21.30;;;;;;;19.00;100.00;100096.38;5009576;28;20116;-73
2022/05/28 02:59:20;;;;;;;23.92;21.48;;;;;;;18.86;100.00;100093.78;5010911;28;20032;-76
2022/05/28 03:01:45;;;;;;;23.95;21.30;;;;;;;18.95;100.00;100119.91;5013212;28;20033;-76
2022/05/28 03:04:11;;;;;;;24.40;21.92;;;;;;;18.74;100.00;100084.19;5013302;28;20099;-74
2022/05/28 03:06:37;;;;;;;25.83;23.27;;;;;;;18.83;100.00;100112.06;5013411;28;20018;-74
2022/05/28 03:09:05;;;;;;;26.73;24.00;;;;;;;18.80;100.00;100122.56;5013199;28;20025;-77
2022/05/28 03:11:30;;;;;;;25.10;22.40;;;;;;;18.72;100.00;100131.28;5012573;28;20074;-71
2022/05/28 03:13:56;;;;;;;25.25;22.55;;;;;;;18.58;100.00;100113.00;5013015;28;20109;-71
2022/05/28 03:16:21;;;;;;;24.23;21.77;;;;;;;18.64;100.00;100120.00;5012970;28;20036;-75
2022/05/28 03:18:47;;;;;;;25.27;22.58;;;;;;;18.74;100.00;100120.81;5013245;28;20116;-74
2022/05/28 03:21:13;;;;;;;24.92;22.23;;;;;;;18.76;100.00;100113.84;5012931;28;20029;-76
2022/05/28 03:23:39;;;;;;;24.88;22.35;;;;;;;18.73;100.00;100124.31;5011834;28;20025;-74
2022/05/28 03:26:16;;;;;;;26.38;23.58;;;;;;;18.62;100.00;100126.06;5012165;28;20400;-74
2022/05/28 03:28:42;;;;;;;27.60;24.58;;;;;;;18.56;100.00;100122.59;5016774;28;20030;-74
2022/05/28 03:31:07;;;;;;;28.27;23.50;;;;;;;18.44;100.00;100127.81;5012716;28;20030;-76
2022/05/28 03:33:33;;;;;;;26.48;23.67;;;;;;;18.35;100.00;100123.47;5012639;28;20025;-74
2022/05/28 03:35:58;;;;;;;27.13;24.33;;;;;;;18.22;100.00;100127.84;5012776;28;20030;-74
2022/05/28 03:38:24;;;;;;;27.30;24.00;;;;;;;18.18;100.00;100128.72;5011106;28;20026;-77
2022/05/28 03:40:49;;;;;;;27.90;25.10;;;;;;;18.21;100.00;100143.53;5011918;28;20693;-75
2022/05/28 03:43:15;;;;;;;27.83;25.00;;;;;;;18.14;100.00;100153.09;5012613;28;20080;-77
2022/05/28 03:45:40;;;;;;;29.92;25.83;;;;;;;17.93;100.00;100110.41;5012424;28;20052;-77
2022/05/28 03:48:09;;;;;;;30.45;26.77;;;;;;;18.06;100.00;100100.00;5012313;28;20083;-74
2022/05/28 03:50:36;;;;;;;31.35;27.23;;;;;;;18.42;100.00;100132.22;5026590;28;20077;-75
2022/05/28 03:53:02;;;;;;;30.15;26.92;;;;;;;18.46;100.00;100115.63;5012498;28;20077;-75
2022/05/28 03:55:27;;;;;;;29.52;26.50;;;;;;;18.53;100.00;100106.94;5012224;28;20099;-70
2022/05/28 03:57:53;;;;;;;30.48;27.30;;;;;;;18.44;100.00;100112.16;5012756;28;20607;-73
2022/05/28 04:00:19;;;;;;;30.00;26.67;;;;;;;18.65;100.00;100137.38;5032048;28;20689;-76
2022/05/28 04:02:45;;;;;;;31.42;28.17;;;;;;;18.62;100.00;100137.41;5032248;28;20045;-76
2022/05/28 04:05:11;;;;;;;30.23;27.15;;;;;;;18.50;100.00;100135.66;5031799;28;20470;-74
2022/05/28 04:07:37;;;;;;;31.98;28.00;;;;;;;18.39;100.00;100137.41;5031566;28;20439;-71
2022/05/28 04:10:04;;;;;;;31.02;27.75;;;;;;;18.38;100.00;100138.28;5031814;28;20104;-73
2022/05/28 04:12:30;;;;;;;30.70;27.40;;;;;;;18.51;100.00;100144.41;5031423;28;20027;-72
2022/05/28 04:14:56;;;;;;;32.55;28.48;;;;;;;18.58;100.00;100148.75;5031752;28;20030;-73
2022/05/28 04:17:21;;;;;;;31.33;28.10;;;;;;;18.56;100.00;100138.28;5032313;28;20056;-76
2022/05/28 04:19:47;;;;;;;31.00;27.73;;;;;;;18.48;100.00;100137.44;5032057;28;20060;-78
2022/05/28 04:22:12;;;;;;;32.30;27.75;;;;;;;18.66;100.00;100164.44;5031955;28;20029;-73
2022/05/28 04:24:38;;;;;;;32.67;29.20;;;;;;;18.56;100.00;100168.78;5031991;28;20444;-70
2022/05/28 04:27:03;;;;;;;31.95;28.42;;;;;;;18.49;100.00;100152.25;5031704;28;20508;-74
2022/05/28 04:29:29;;;;;;;31.85;28.52;;;;;;;18.75;100.00;100174.84;5032481;28;20364;-74
2022/05/28 04:31:54;;;;;;;31.38;28.17;;;;;;;18.87;100.00;100173.97;5031932;28;20400;-73
2022/05/28 04:34:20;;;;;;;32.90;29.38;;;;;;;18.90;100.00;100172.28;5031949;28;20025;-73
2022/05/28 04:36:45;;;;;;;31.08;27.52;;;;;;;18.96;100.00;100180.97;5031528;28;20470;-72
2022/05/28 04:39:11;;;;;;;31.42;28.13;;;;;;;19.00;100.00;100185.31;5030054;28;20450;-75
2022/05/28 04:41:36;;;;;;;31.92;28.48;;;;;;;19.00;100.00;100180.94;5031469;28;20063;-75
2022/05/28 04:44:02;;;;;;;32.75;29.33;;;;;;;18.94;100.00;100159.16;5031709;28;20104;-74
2022/05/28 04:46:27;;;;;;;31.65;27.52;;;;;;;19.23;100.00;100188.72;5031737;28;20057;-75
2022/05/28 04:48:53;;;;;;;31.13;28.05;;;;;;;19.16;100.00;100176.53;5031823;28;20028;-76
2022/05/28 04:51:18;;;;;;;29.85;26.75;;;;;;;19.27;100.00;100193.97;5031190;28;20103;-76
2022/05/28 04:53:44;;;;;;;29.92;26.75;;;;;;;19.33;100.00;100178.25;5031187;28;20087;-73
2022/05/28 04:56:09;;;;;;;30.55;26.55;;;;;;;19.39;100.00;100179.09;5031190;28;20087;-74
2022/05/28 04:58:35;;;;;;;29.50;26.35;;;;;;;19.60;100.00;100168.53;5031675;28;20033;-72
2022/05/28 05:01:00;;;;;;;29.77;26.83;;;;;;;19.67;100.00;100159.75;5031123;28;20040;-75
2022/05/28 05:03:25;;;;;;;31.30;27.42;;;;;;;19.88;100.00;100178.00;5031104;28;20021;-73
2022/05/28 05:05:51;;;;;;;30.50;26.85;;;;;;;19.93;100.00;100159.63;5031266;28;20529;-76
2022/05/28 05:08:16;;;;;;;28.55;24.90;;;;;;;20.14;100.00;100169.09;5030781;28;20025;-75
2022/05/28 05:10:44;;;;;;;27.10;24.27;;;;;;;20.28;100.00;100170.75;5031321;28;20026;-74
2022/05/28 05:13:10;;;;;;;27.42;24.75;;;;;;;20.39;99.29;100168.03;5030928;28;20034;-72
2022/05/28 05:15:38;;;;;;;28.90;25.83;;;;;;;20.38;100.00;100156.66;5030851;28;20025;-73
2022/05/28 05:18:04;;;;;;;26.67;23.98;;;;;;;20.49;99.92;100175.81;5030912;28;20079;-76
2022/05/28 05:20:30;;;;;;;29.92;26.85;;;;;;;20.57;100.00;100174.88;5031153;28;20033;-72
2022/05/28 05:22:56;;;;;;;28.63;25.63;;;;;;;20.44;98.83;100161.88;5030645;28;20407;-72
2022/05/28 05:25:21;;;;;;;25.65;23.15;;;;;;;20.51;99.72;100163.56;5031011;28;20116;-76
2022/05/28 05:27:47;;;;;;;28.25;25.30;;;;;;;20.63;98.50;100166.94;5030918;28;20112;-77
2022/05/28 05:30:13;;;;;;;24.88;22.42;;;;;;;20.64;98.22;100155.56;5030682;28;20040;-73
2022/05/28 05:32:38;;;;;;;25.88;23.17;;;;;;;20.78;98.11;100158.09;5030702;28;20381;-75
2022/05/28 05:35:04;;;;;;;25.45;22.95;;;;;;;20.94;97.31;100170.16;5030546;28;20381;-75
2022/05/28 05:37:30;;;;;;;27.33;24.05;;;;;;;20.95;99.07;100157.94;5030873;28;20021;-76
2022/05/28 05:39:56;;;;;;;28.88;23.52;;;;;;;21.09;98.12;100173.50;5030826;28;20403;-74
2022/05/28 05:42:21;;;;;;;27.85;24.73;;;;;;;20.99;98.92;100159.63;5030784;28;20459;-75
2022/05/28 05:44:47;;;;;;;25.88;23.10;;;;;;;21.08;98.96;100164.75;5030580;28;20395;-73
2022/05/28 05:47:13;;;;;;;24.88;22.48;;;;;;;21.14;98.03;100169.06;5030506;28;20120;-77
2022/05/28 05:49:38;;;;;;;24.92;22.15;;;;;;;21.03;96.81;100136.84;5030507;28;20017;-75
2022/05/28 05:52:04;;;;;;;23.10;20.60;;;;;;;21.14;96.82;100162.06;5030293;28;20087;-75
2022/05/28 05:54:30;;;;;;;21.65;19.35;;;;;;;21.12;95.15;100137.59;5030617;28;20116;-75
2022/05/28 05:56:56;;;;;;;25.08;20.67;;;;;;;21.35;96.38;100160.06;5030479;28;20099;-73
2022/05/28 05:59:22;;;;;;;21.00;18.77;;;;;;;21.48;95.19;100160.78;5030614;28;20471;-72
2022/05/28 06:01:48;;;;;;;21.13;18.65;;;;;;;21.50;95.10;100161.63;5030447;28;20029;-73
2022/05/28 06:04:14;;;;;;;22.55;19.63;;;;;;;21.56;94.09;100165.94;5030221;28;20029;-74
2022/05/28 06:06:40;;;;;;;20.88;18.63;;;;;;;21.49;96.17;100150.25;5030353;28;20029;-75
2022/05/28 06:09:06;;;;;;;21.48;19.17;;;;;;;21.43;95.64;100134.59;5030602;28;20091;-76
2022/05/28 06:11:32;;;;;;;19.77;17.67;;;;;;;21.61;94.70;100153.66;5030416;28;20041;-73
2022/05/28 06:13:58;;;;;;;20.05;17.90;;;;;;;21.86;93.29;100158.53;5030128;28;20095;-76
2022/05/28 06:16:24;;;;;;;20.45;18.15;;;;;;;22.01;92.20;100167.94;5029033;28;20029;-75
2022/05/28 06:18:49;;;;;;;22.75;17.67;;;;;;;22.14;92.00;100164.25;5030055;28;20036;-74
2022/05/28 06:21:15;;;;;;;18.70;16.60;;;;;;;22.25;91.20;100164.09;5030623;28;20369;-74
2022/05/28 06:23:41;;;;;;;18.35;16.42;;;;;;;22.38;90.72;100168.28;5030239;28;20048;-74
2022/05/28 06:26:07;;;;;;;24.10;18.25;;;;;;;22.28;90.34;100137.72;5030054;28;20508;-75
2022/05/28 06:28:33;;;;;;;20.23;17.88;;;;;;;22.42;90.74;100167.34;5044465;28;20041;-74
2022/05/28 06:31:00;;;;;;;20.65;18.50;;;;;;;22.21;90.32;100173.78;5030580;28;20029;-75
2022/05/28 06:33:25;;;;;;;20.70;17.27;;;;;;;22.25;88.40;100171.97;5029802;28;20029;-73
2022/05/28 06:36:02;;;;;;;18.95;17.00;;;;;;;22.10;89.42;100149.44;5033660;28;20457;-75
2022/05/28 06:38:29;;;;;;;20.20;17.98;;;;;;;21.98;87.88;100176.75;5033532;28;20040;-75
2022/05/28 06:40:54;;;;;;;18.10;16.20;;;;;;;21.83;88.19;100177.84;5033815;28;20025;-72
2022/05/28 06:43:20;;;;;;;18.92;15.70;;;;;;;22.05;86.00;100173.16;5034078;28;20052;-73
2022/05/28 06:45:46;;;;;;;17.90;15.98;;;;;;;22.19;86.25;100177.34;5034134;28;20082;-72
2022/05/28 06:48:12;;;;;;;19.92;16.27;;;;;;;21.96;86.83;100123.34;5033357;28;20032;-75
2022/05/28 06:53:22;;;;;;;17.27;15.48;;;;;;;22.04;88.08;100168.78;5033495;28;20088;-72
2022/05/28 06:55:48;;;;;;;17.00;15.38;;;;;;;22.25;89.59;100158.81;5033590;28;20563;-74
2022/05/28 06:58:14;;;;;;;18.42;16.52;;;;;;;22.16;91.80;100137.94;5033714;28;20037;-75
2022/05/28 07:00:41;;;;;;;18.83;16.95;;;;;;;22.41;92.66;100165.59;5033390;28;20112;-73
2022/05/28 07:03:17;;;;;;;18.08;16.27;;;;;;;22.44;89.18;100162.03;5033418;28;20101;-75
2022/05/28 07:05:45;;;;;;;18.98;16.55;;;;;;;22.41;89.01;100170.00;5033451;28;20057;-73
2022/05/28 07:08:10;;;;;;;18.90;16.65;;;;;;;22.35;92.33;100155.16;5033531;28;20101;-76
2022/05/28 07:10:42;;;;;;;18.63;16.83;;;;;;;22.61;92.13;100169.66;5033316;28;20032;-75
2022/05/28 07:13:09;;;;;;;19.65;16.98;;;;;;;22.66;88.83;100169.59;5033067;28;20029;-71
2022/05/28 07:15:35;;;;;;;17.58;15.77;;;;;;;22.94;87.63;100172.53;5033259;28;20025;-75
2022/05/28 07:18:00;;;;;;;16.70;14.88;;;;;;;23.14;86.22;100152.88;5033636;28;20098;-75
2022/05/28 07:20:26;;;;;;;17.45;15.45;;;;;;;23.32;85.72;100151.69;5033273;28;20018;-72
2022/05/28 07:22:51;;;;;;;18.75;15.85;;;;;;;23.31;84.66;100121.81;5033274;28;20056;-75
2022/05/28 07:25:17;;;;;;;18.38;16.00;;;;;;;23.61;84.26;100137.00;5032908;28;20026;-73
2022/05/28 07:27:42;;;;;;;18.08;15.77;;;;;;;23.74;86.88;100149.84;5033205;28;20033;-77
2022/05/28 07:30:09;;;;;;;17.63;15.52;;;;;;;23.72;86.01;100138.47;5033097;28;20030;-72
2022/05/28 07:32:35;;;;;;;17.10;13.60;;;;;;;23.69;85.28;100132.41;5032775;28;20087;-76
2022/05/28 07:35:01;;;;;;;16.42;13.93;;;;;;;23.73;86.91;100145.47;5032949;28;20483;-74
2022/05/28 07:37:29;;;;;;;16.50;14.80;;;;;;;23.54;83.81;100112.53;5032764;28;20104;-73
2022/05/28 07:39:54;;;;;;;16.35;14.38;;;;;;;23.78;84.91;100134.00;5032600;28;20108;-72
2022/05/28 07:42:20;;;;;;;17.98;14.25;;;;;;;23.87;84.17;100129.34;5032423;28;20533;-72
2022/05/28 07:44:46;;;;;;;16.58;13.73;;;;;;;23.59;82.54;100084.34;5032300;28;20074;-75
2022/05/28 07:47:11;;;;;;;16.77;13.80;;;;;;;23.85;85.82;100104.81;5032927;28;20091;-73
2022/05/28 07:49:39;;;;;;;15.02;13.43;;;;;;;23.93;81.86;100124.88;5032651;28;20025;-76
2022/05/28 07:52:04;;;;;;;18.00;14.48;;;;;;;23.99;87.85;100136.13;5032616;28;20049;-75
2022/05/28 07:54:30;;;;;;;14.73;13.15;;;;;;;24.17;83.89;100136.59;5032439;28;20430;-76
2022/05/28 07:56:57;;;;;;;13.68;12.27;;;;;;;24.33;82.01;100131.81;5032167;28;20118;-72
2022/05/28 07:59:22;;;;;;;14.43;12.93;;;;;;;24.47;83.76;100129.66;5032767;28;20036;-74
2022/05/28 08:01:48;;;;;;;16.33;12.98;;;;;;;24.58;80.72;100129.38;5032455;28;20026;-75
2022/05/28 08:04:15;;;;;;;13.30;11.90;;;;;;;24.65;80.39;100130.09;5032958;28;20559;-72
2022/05/28 08:06:44;;;;;;;13.50;12.20;;;;;;;24.70;82.43;100121.16;5032242;28;20155;-73
2022/05/28 08:09:11;;;;;;;16.80;13.65;;;;;;;24.79;82.85;100119.19;5030931;28;20547;-75
2022/05/28 08:11:37;;;;;;;14.30;12.98;;;;;;;24.89;80.30;100125.09;5032004;28;20071;-75
2022/05/28 08:14:03;;;;;;;14.65;13.20;;;;;;;24.91;84.17;100097.75;5032347;28;20080;-73
2022/05/28 08:16:28;;;;;;;15.70;12.45;;;;;;;24.84;78.78;100082.97;5032337;28;20057;-73
2022/05/28 08:18:54;;;;;;;13.38;11.65;;;;;;;25.18;79.11;100111.91;5032282;28;20392;-75
2022/05/28 08:24:04;;;;;;;11.63;10.43;;;;;;;25.17;79.07;100109.31;5031907;28;20045;-75
2022/05/28 08:26:30;;;;;;;13.38;10.65;;;;;;;25.08;75.48;100078.75;5032409;28;20021;-74
2022/05/28 08:28:56;;;;;;;10.95;9.85;;;;;;;25.39;73.89;100106.91;5031930;28;20499;-75
2022/05/28 08:31:22;;;;;;;16.92;10.70;;;;;;;25.60;74.02;100102.75;5046288;28;20099;-73
2022/05/28 08:33:48;;;;;;;11.90;9.90;;;;;;;25.72;73.55;100100.63;5031786;28;20112;-72
2022/05/28 08:36:15;;;;;;;10.90;9.80;;;;;;;25.84;70.82;100117.00;5031831;28;20025;-75
2022/05/28 08:38:41;;;;;;;12.13;10.88;;;;;;;25.91;77.07;100109.72;5031676;28;20026;-77
2022/05/28 08:41:19;;;;;;;10.60;9.05;;;;;;;25.99;72.03;100115.63;5031805;28;20037;-72
2022/05/28 08:43:50;;;;;;;10.30;9.27;;;;;;;26.15;71.08;100120.44;5031549;28;20018;-75
2022/05/28 08:46:17;;;;;;;11.90;9.02;;;;;;;26.21;68.91;100107.00;5031584;28;20557;-73
2022/05/28 08:48:45;;;;;;;11.48;8.90;;;;;;;26.06;70.04;100108.38;5031370;28;20461;-73
2022/05/28 08:51:22;;;;;;;24.77;9.30;;;;;;;25.84;70.16;100116.09;5030839;28;20041;-72
2022/05/28 08:54:22;;;;;;;11.45;8.25;;;;;;;25.71;72.70;100126.22;5029127;28;20128;-75
2022/05/28 08:56:49;;;;;;;10.43;8.77;;;;;;;25.65;70.63;100115.84;5030934;28;20036;-75
2022/05/28 08:59:31;;;;;;;11.32;9.77;;;;;;;25.64;72.87;100088.50;5031468;28;20029;-72
2022/05/28 09:01:58;;;;;;;10.25;9.23;;;;;;;25.88;72.81;100115.09;5031656;28;20040;-72
2022/05/28 09:04:32;;;;;;;10.65;8.93;;;;;;;25.68;69.94;100110.44;5031114;28;20053;-75
2022/05/28 09:07:04;;;;;;;9.77;8.77;;;;;;;25.66;69.60;100094.63;5045038;28;20172;-72
2022/05/28 09:09:39;;;;;;;11.30;9.48;;;;;;;25.56;71.66;100023.59;5031073;28;20025;-75
2022/05/28 09:12:10;;;;;;;10.68;9.20;;;;;;;25.96;68.38;100078.69;5029595;28;20527;-74
2022/05/28 09:14:38;;;;;;;9.48;8.57;;;;;;;26.18;67.33;100055.97;5031038;28;20108;-74
2022/05/28 09:17:10;;;;;;;9.35;8.40;;;;;;;26.22;67.44;100023.19;5031185;28;20040;-73
2022/05/28 09:19:45;;;;;;;10.30;9.13;;;;;;;26.50;67.46;100035.44;5031168;28;20021;-75
2022/05/28 09:22:10;;;;;;;11.27;8.55;;;;;;;26.64;67.58;100017.25;5030842;28;20400;-75
2022/05/28 09:24:37;;;;;;;9.70;8.23;;;;;;;26.59;66.89;99995.38;5030679;28;20041;-75
2022/05/28 09:27:08;;;;;;;9.60;8.00;;;;;;;26.37;67.36;99975.00;5030806;28;20017;-72
2022/05/28 09:29:47;;;;;;;9.27;8.02;;;;;;;26.11;68.39;99950.34;5030813;28;20030;-73
2022/05/28 09:32:31;;;;;;;;;;;;;;;26.03;71.06;99951.50;5031028;28;20021;-73
2022/05/28 09:35:13;;;;;;;9.20;7.97;;;;;;;26.18;69.60;99958.06;5029786;28;19979;-72
2022/05/28 09:38:06;;;;;;;12.73;8.45;;;;;;;26.39;69.75;99959.06;5010362;28;20030;-75
2022/05/28 09:40:46;;;;;;;9.45;7.95;;;;;;;26.40;68.52;99937.81;4990545;28;20611;-72
2022/05/28 09:43:42;;;;;;;10.18;8.38;;;;;;;26.57;68.18;99947.78;4987567;28;20035;-74
2022/05/28 09:46:18;;;;;;;11.68;7.72;;;;;;;26.57;64.66;99944.28;4989086;28;20137;-73
2022/05/28 09:48:46;;;;;;;9.60;7.38;;;;;;;26.52;66.55;99933.88;4989197;28;20036;-72
2022/05/28 09:51:22;;;;;;;9.40;7.47;;;;;;;26.79;65.56;99944.34;4987500;28;20045;-75
2022/05/28 09:56:40;;;;;;;9.80;8.65;;;;;;;26.85;68.94;99941.47;4988207;28;20033;-76
2022/05/28 09:59:27;;;;;;;10.95;8.25;;;;;;;26.89;69.28;99948.38;4987736;28;20493;-74
2022/05/28 10:01:58;;;;;;;11.52;8.20;;;;;;;26.95;67.77;99953.44;4989552;28;20045;-75
2022/05/28 10:04:30;;;;;;;14.20;8.00;;;;;;;27.05;67.71;99961.00;4989124;28;20049;-75
2022/05/28 10:06:59;;;;;;;9.60;8.45;;;;;;;27.21;65.81;99972.72;4987731;28;20026;-75
2022/05/28 10:09:28;;;;;;;9.90;8.13;;;;;;;27.40;64.20;99970.22;4993288;28;20068;-75
2022/05/28 10:12:00;;;;;;;13.05;8.35;;;;;;;27.52;63.58;99973.28;4991767;28;20132;-73
2022/05/28 10:14:31;;;;;;;10.13;8.07;;;;;;;27.63;63.29;99964.88;4993642;28;20157;-73
2022/05/28 10:17:02;;;;;;;10.95;8.85;;;;;;;27.68;63.75;99961.09;5010342;28;20427;-75
2022/05/28 10:19:42;;;;;;;10.63;8.70;;;;;;;27.52;62.10;99938.81;5012637;28;20097;-72
2022/05/28 10:22:16;;;;;;;12.88;8.68;;;;;;;27.67;60.94;99962.03;5013562;28;20018;-74
2022/05/28 10:24:46;;;;;;;10.15;8.13;;;;;;;27.74;62.38;99965.31;5013472;28;20033;-74
2022/05/28 10:27:27;;;;;;;11.27;8.68;;;;;;;27.80;63.75;99970.31;5013419;28;20038;-74
2022/05/28 10:29:53;;;;;;;12.48;10.18;;;;;;;27.64;66.56;99946.25;5013627;28;20065;-74
2022/05/28 10:32:26;;;;;;;11.98;9.85;;;;;;;27.90;67.51;99968.13;5013186;28;20032;-74
2022/05/28 10:35:02;;;;;;;11.55;9.88;;;;;;;28.01;69.33;99970.34;5028345;28;20109;-73
2022/05/28 10:37:28;;;;;;;16.05;11.60;;;;;;;27.74;70.63;99957.34;5025051;28;20092;-73
2022/05/28 10:40:08;;;;;;;14.65;11.55;;;;;;;27.73;71.30;99929.09;5013468;28;20472;-72
2022/05/28 10:42:34;;;;;;;12.57;11.27;;;;;;;27.92;70.42;99951.22;5013452;28;20108;-74
2022/05/28 10:45:00;;;;;;;12.60;11.40;;;;;;;28.14;70.16;99966.25;5013333;28;20109;-76
2022/05/28 10:47:34;;;;;;;12.60;10.70;;;;;;;28.27;68.39;99963.06;5013129;28;20018;-75
2022/05/28 10:50:13;;;;;;;14.75;10.30;;;;;;;28.33;67.67;99963.63;5014215;28;20038;-76
2022/05/28 10:52:57;;;;;;;;;;;;;;;28.17;66.99;99968.75;5013786;28;20077;-75
2022/05/28 10:55:46;;;;;;;11.90;10.48;;;;;;;27.95;69.87;99975.91;5013303;28;19956;-74
2022/05/28 10:58:14;;;;;;;;;;;;;;;27.82;70.38;99975.59;5013733;28;20029;-76
2022/05/28 11:00:54;;;;;;;13.07;10.50;;;;;;;27.95;72.11;99967.94;5014293;28;19913;-75
2022/05/28 11:03:30;;;;;;;11.88;9.88;;;;;;;28.25;66.18;99974.59;5014116;28;20034;-72
2022/05/28 11:06:13;;;;;;;10.82;9.55;;;;;;;28.23;65.04;99965.81;5013749;28;20030;-74
2022/05/28 11:08:50;;;;;;;12.02;10.07;;;;;;;28.09;65.11;99918.69;5013656;28;20076;-74
2022/05/28 11:11:40;;;;;;;12.43;10.07;;;;;;;28.24;66.27;99929.53;5013276;28;20041;-75
2022/05/28 11:14:27;;;;;;;10.55;9.55;;;;;;;28.54;64.40;99959.13;5021998;28;20034;-74
2022/05/28 11:17:30;;;;;;;14.43;10.35;;;;;;;28.61;64.32;99958.84;5013962;28;20026;-75
2022/05/28 11:20:14;;;;;;;14.77;11.35;;;;;;;28.69;64.46;99946.13;5013084;28;20033;-75
2022/05/28 11:22:48;;;;;;;12.50;9.98;;;;;;;28.69;63.67;99935.50;5013687;28;20022;-76
2022/05/28 11:25:42;;;;;;;12.77;9.20;;;;;;;28.88;62.72;99938.97;5013176;28;20022;-75
2022/05/28 11:28:14;;;;;;;9.95;8.95;;;;;;;28.83;62.22;99925.06;5013356;28;20080;-72
2022/05/28 11:30:45;;;;;;;9.73;8.73;;;;;;;28.83;62.17;99938.34;5013439;28;20033;-75